sensor_id;sensor_type;location;lat;lon;timestamp;pressure;altitude;pressure_sealevel;temperature;humidity
73870;BME280;64924;42.140;24.762;2023-11-18T00:00:31;98662.78;;;12.98;65.81
73870;BME280;64924;42.140;24.762;2023-11-18T00:02:57;98664.06;;;12.96;65.71
73870;BME280;64924;42.140;24.762;2023-11-18T00:05:22;98668.22;;;12.98;66.00
73870;BME280;64924;42.140;24.762;2023-11-18T00:07:49;98683.75;;;12.98;65.55
73870;BME280;64924;42.140;24.762;2023-11-18T00:10:15;98676.16;;;13.00;65.47
73870;BME280;64924;42.140;24.762;2023-11-18T00:12:41;98681.13;;;13.03;65.58
73870;BME280;64924;42.140;24.762;2023-11-18T00:15:07;98677.81;;;13.01;65.99
73870;BME280;64924;42.140;24.762;2023-11-18T00:17:37;98678.41;;;13.03;66.06
73870;BME280;64924;42.140;24.762;2023-11-18T00:20:03;98679.38;;;12.97;65.57
73870;BME280;64924;42.140;24.762;2023-11-18T00:22:35;98678.63;;;13.01;65.24
73870;BME280;64924;42.140;24.762;2023-11-18T00:25:01;98684.00;;;12.96;65.31
73870;BME280;64924;42.140;24.762;2023-11-18T00:27:26;98686.81;;;13.01;65.27
73870;BME280;64924;42.140;24.762;2023-11-18T00:29:52;98685.75;;;13.02;65.26
73870;BME280;64924;42.140;24.762;2023-11-18T00:32:18;98682.69;;;12.99;65.28
73870;BME280;64924;42.140;24.762;2023-11-18T00:34:44;98679.38;;;12.97;65.31
73870;BME280;64924;42.140;24.762;2023-11-18T00:37:10;98677.47;;;12.97;64.98
73870;BME280;64924;42.140;24.762;2023-11-18T00:39:35;98680.44;;;12.96;64.73
73870;BME280;64924;42.140;24.762;2023-11-18T00:42:02;98683.75;;;12.98;64.74
73870;BME280;64924;42.140;24.762;2023-11-18T00:44:28;98669.41;;;13.02;64.86
73870;BME280;64924;42.140;24.762;2023-11-18T00:46:53;98674.25;;;13.00;64.42
73870;BME280;64924;42.140;24.762;2023-11-18T00:49:19;98673.91;;;12.97;64.58
73870;BME280;64924;42.140;24.762;2023-11-18T00:51:44;98640.09;;;12.75;64.15
73870;BME280;64924;42.140;24.762;2023-11-18T00:54:10;98606.06;;;12.54;64.35
73870;BME280;64924;42.140;24.762;2023-11-18T00:56:36;98665.97;;;12.95;63.97
73870;BME280;64924;42.140;24.762;2023-11-18T00:59:02;98685.28;;;13.05;63.74
73870;BME280;64924;42.140;24.762;2023-11-18T01:01:28;98653.97;;;12.85;63.95
73870;BME280;64924;42.140;24.762;2023-11-18T01:03:53;98698.22;;;13.10;64.52
73870;BME280;64924;42.140;24.762;2023-11-18T01:06:19;98659.56;;;12.90;64.32
73870;BME280;64924;42.140;24.762;2023-11-18T01:08:45;98680.06;;;13.04;64.61
73870;BME280;64924;42.140;24.762;2023-11-18T01:11:15;98709.06;;;13.17;64.16
73870;BME280;64924;42.140;24.762;2023-11-18T01:13:41;98701.88;;;13.04;64.77
73870;BME280;64924;42.140;24.762;2023-11-18T01:16:06;98700.56;;;13.06;64.87
73870;BME280;64924;42.140;24.762;2023-11-18T01:18:32;98711.03;;;12.98;64.44
73870;BME280;64924;42.140;24.762;2023-11-18T01:20:58;98702.25;;;12.96;64.79
73870;BME280;64924;42.140;24.762;2023-11-18T01:23:24;98704.16;;;12.95;64.21
73870;BME280;64924;42.140;24.762;2023-11-18T01:25:49;98721.06;;;12.86;63.89
73870;BME280;64924;42.140;24.762;2023-11-18T01:28:16;98721.19;;;12.91;63.40
73870;BME280;64924;42.140;24.762;2023-11-18T01:30:42;98730.31;;;12.85;63.80
73870;BME280;64924;42.140;24.762;2023-11-18T01:33:10;98723.38;;;12.70;63.86
73870;BME280;64924;42.140;24.762;2023-11-18T01:35:36;98703.56;;;12.52;63.24
73870;BME280;64924;42.140;24.762;2023-11-18T01:38:01;98733.69;;;12.68;63.13
73870;BME280;64924;42.140;24.762;2023-11-18T01:40:27;98728.34;;;12.62;62.83
73870;BME280;64924;42.140;24.762;2023-11-18T01:42:55;98706.97;;;12.47;63.12
73870;BME280;64924;42.140;24.762;2023-11-18T01:45:21;98734.50;;;12.69;62.98
73870;BME280;64924;42.140;24.762;2023-11-18T01:47:46;98724.00;;;12.72;62.46
73870;BME280;64924;42.140;24.762;2023-11-18T01:50:13;98727.78;;;12.71;62.50
73870;BME280;64924;42.140;24.762;2023-11-18T01:52:40;98701.53;;;12.47;61.35
73870;BME280;64924;42.140;24.762;2023-11-18T01:55:06;98726.78;;;12.54;61.35
73870;BME280;64924;42.140;24.762;2023-11-18T01:57:33;98703.00;;;12.31;61.29
73870;BME280;64924;42.140;24.762;2023-11-18T01:59:59;98738.38;;;12.50;61.70
73870;BME280;64924;42.140;24.762;2023-11-18T02:02:25;98733.16;;;12.48;61.55
73870;BME280;64924;42.140;24.762;2023-11-18T02:04:51;98721.97;;;12.38;61.53
73870;BME280;64924;42.140;24.762;2023-11-18T02:07:17;98700.13;;;12.26;61.53
73870;BME280;64924;42.140;24.762;2023-11-18T02:09:43;98720.63;;;12.29;61.08
73870;BME280;64924;42.140;24.762;2023-11-18T02:12:26;98726.22;;;12.34;61.29
73870;BME280;64924;42.140;24.762;2023-11-18T02:14:55;98695.50;;;11.97;61.88
73870;BME280;64924;42.140;24.762;2023-11-18T02:17:23;98728.97;;;12.16;61.04
73870;BME280;64924;42.140;24.762;2023-11-18T02:19:57;98733.81;;;12.14;61.32
73870;BME280;64924;42.140;24.762;2023-11-18T02:22:24;98737.91;;;12.04;62.32
73870;BME280;64924;42.140;24.762;2023-11-18T02:24:50;98744.41;;;12.03;63.14
73870;BME280;64924;42.140;24.762;2023-11-18T02:27:16;98746.31;;;12.03;62.98
73870;BME280;64924;42.140;24.762;2023-11-18T02:29:45;98746.53;;;12.01;62.67
73870;BME280;64924;42.140;24.762;2023-11-18T02:32:25;98759.25;;;12.08;62.16
73870;BME280;64924;42.140;24.762;2023-11-18T02:34:56;98756.97;;;12.04;62.03
73870;BME280;64924;42.140;24.762;2023-11-18T02:37:24;98753.47;;;11.97;62.82
73870;BME280;64924;42.140;24.762;2023-11-18T02:39:53;98754.09;;;11.99;62.64
73870;BME280;64924;42.140;24.762;2023-11-18T02:42:25;98738.59;;;11.82;62.52
73870;BME280;64924;42.140;24.762;2023-11-18T02:44:52;98756.28;;;11.91;62.61
73870;BME280;64924;42.140;24.762;2023-11-18T02:47:25;98763.72;;;11.84;62.40
73870;BME280;64924;42.140;24.762;2023-11-18T02:49:54;98751.59;;;11.80;62.02
73870;BME280;64924;42.140;24.762;2023-11-18T02:52:20;98758.50;;;11.82;62.38
73870;BME280;64924;42.140;24.762;2023-11-18T02:54:45;98747.38;;;11.84;62.60
73870;BME280;64924;42.140;24.762;2023-11-18T02:57:10;98741.56;;;11.80;62.04
73870;BME280;64924;42.140;24.762;2023-11-18T02:59:39;98747.25;;;11.72;62.16
73870;BME280;64924;42.140;24.762;2023-11-18T03:02:04;98756.69;;;11.69;62.09
73870;BME280;64924;42.140;24.762;2023-11-18T03:04:31;98757.81;;;11.62;62.02
73870;BME280;64924;42.140;24.762;2023-11-18T03:06:56;98749.72;;;11.55;62.31
73870;BME280;64924;42.140;24.762;2023-11-18T03:09:22;98749.81;;;11.49;62.60
73870;BME280;64924;42.140;24.762;2023-11-18T03:11:53;98747.16;;;11.42;62.94
73870;BME280;64924;42.140;24.762;2023-11-18T03:14:18;98742.22;;;11.32;62.78
73870;BME280;64924;42.140;24.762;2023-11-18T03:16:44;98755.81;;;11.32;63.18
73870;BME280;64924;42.140;24.762;2023-11-18T03:19:10;98725.94;;;11.26;63.46
73870;BME280;64924;42.140;24.762;2023-11-18T03:21:35;98722.16;;;11.09;63.37
73870;BME280;64924;42.140;24.762;2023-11-18T03:24:01;98762.53;;;11.30;63.15
73870;BME280;64924;42.140;24.762;2023-11-18T03:26:27;98754.16;;;11.31;62.67
73870;BME280;64924;42.140;24.762;2023-11-18T03:28:52;98742.25;;;11.26;62.38
73870;BME280;64924;42.140;24.762;2023-11-18T03:31:18;98709.28;;;10.97;62.62
73870;BME280;64924;42.140;24.762;2023-11-18T03:33:45;98692.41;;;10.89;63.24
73870;BME280;64924;42.140;24.762;2023-11-18T03:36:10;98756.34;;;11.16;62.58
73870;BME280;64924;42.140;24.762;2023-11-18T03:38:37;98751.13;;;11.15;62.30
73870;BME280;64924;42.140;24.762;2023-11-18T03:41:03;98745.16;;;11.06;61.51
73870;BME280;64924;42.140;24.762;2023-11-18T03:43:28;98755.13;;;10.87;61.49
73870;BME280;64924;42.140;24.762;2023-11-18T03:45:54;98742.63;;;10.80;60.64
73870;BME280;64924;42.140;24.762;2023-11-18T03:48:22;98651.75;;;10.13;60.66
73870;BME280;64924;42.140;24.762;2023-11-18T03:50:48;98750.44;;;10.69;61.22
73870;BME280;64924;42.140;24.762;2023-11-18T03:53:13;98756.78;;;10.57;60.08
73870;BME280;64924;42.140;24.762;2023-11-18T03:55:39;98776.22;;;10.54;60.82
73870;BME280;64924;42.140;24.762;2023-11-18T03:58:04;98757.81;;;10.62;60.97
73870;BME280;64924;42.140;24.762;2023-11-18T04:00:30;98756.75;;;10.63;60.10
73870;BME280;64924;42.140;24.762;2023-11-18T04:02:56;98702.44;;;10.32;60.07
73870;BME280;64924;42.140;24.762;2023-11-18T04:05:22;98738.00;;;10.55;59.66
73870;BME280;64924;42.140;24.762;2023-11-18T04:07:47;98748.81;;;10.62;59.64
73870;BME280;64924;42.140;24.762;2023-11-18T04:10:13;98744.63;;;10.66;59.23
73870;BME280;64924;42.140;24.762;2023-11-18T04:12:38;98741.88;;;10.73;59.69
73870;BME280;64924;42.140;24.762;2023-11-18T04:15:05;98748.53;;;10.77;58.86
73870;BME280;64924;42.140;24.762;2023-11-18T04:17:31;98750.63;;;10.75;58.43
73870;BME280;64924;42.140;24.762;2023-11-18T04:19:57;98702.09;;;10.47;58.36
73870;BME280;64924;42.140;24.762;2023-11-18T04:22:23;98737.81;;;10.82;58.68
73870;BME280;64924;42.140;24.762;2023-11-18T04:24:49;98728.94;;;10.68;57.79
73870;BME280;64924;42.140;24.762;2023-11-18T04:27:15;98744.59;;;10.73;57.96
73870;BME280;64924;42.140;24.762;2023-11-18T04:29:41;98739.97;;;10.73;57.85
73870;BME280;64924;42.140;24.762;2023-11-18T04:32:06;98728.31;;;10.66;57.63
73870;BME280;64924;42.140;24.762;2023-11-18T04:34:36;98735.81;;;10.70;57.64
73870;BME280;64924;42.140;24.762;2023-11-18T04:37:03;98732.53;;;10.62;56.65
73870;BME280;64924;42.140;24.762;2023-11-18T04:39:34;98737.31;;;10.66;56.48
73870;BME280;64924;42.140;24.762;2023-11-18T04:42:00;98729.81;;;10.62;55.86
73870;BME280;64924;42.140;24.762;2023-11-18T04:44:26;98697.41;;;10.35;55.66
73870;BME280;64924;42.140;24.762;2023-11-18T04:46:52;98711.81;;;10.36;55.24
73870;BME280;64924;42.140;24.762;2023-11-18T04:49:17;98751.44;;;10.44;55.16
73870;BME280;64924;42.140;24.762;2023-11-18T04:51:43;98768.97;;;10.41;54.58
73870;BME280;64924;42.140;24.762;2023-11-18T04:54:08;98790.34;;;10.31;54.26
73870;BME280;64924;42.140;24.762;2023-11-18T04:56:35;98779.31;;;10.26;55.21
73870;BME280;64924;42.140;24.762;2023-11-18T04:59:05;98778.25;;;10.27;55.42
73870;BME280;64924;42.140;24.762;2023-11-18T05:01:33;98718.84;;;9.99;54.38
73870;BME280;64924;42.140;24.762;2023-11-18T05:03:59;98763.44;;;10.23;54.16
73870;BME280;64924;42.140;24.762;2023-11-18T05:06:25;98767.41;;;10.27;54.14
73870;BME280;64924;42.140;24.762;2023-11-18T05:08:51;98761.97;;;10.27;54.07
73870;BME280;64924;42.140;24.762;2023-11-18T05:11:17;98764.91;;;10.25;54.60
73870;BME280;64924;42.140;24.762;2023-11-18T05:13:42;98747.78;;;10.12;54.58
73870;BME280;64924;42.140;24.762;2023-11-18T05:16:08;98767.22;;;10.22;54.39
73870;BME280;64924;42.140;24.762;2023-11-18T05:18:36;98739.06;;;10.03;54.51
73870;BME280;64924;42.140;24.762;2023-11-18T05:21:03;98754.69;;;10.14;53.94
73870;BME280;64924;42.140;24.762;2023-11-18T05:23:31;98772.84;;;10.14;53.61
73870;BME280;64924;42.140;24.762;2023-11-18T05:25:57;98776.63;;;10.19;53.11
73870;BME280;64924;42.140;24.762;2023-11-18T05:28:26;98708.03;;;9.86;52.58
73870;BME280;64924;42.140;24.762;2023-11-18T05:30:52;98726.56;;;10.02;52.68
73870;BME280;64924;42.140;24.762;2023-11-18T05:33:18;98750.31;;;10.06;52.57
73870;BME280;64924;42.140;24.762;2023-11-18T05:35:46;98757.41;;;10.07;52.29
73870;BME280;64924;42.140;24.762;2023-11-18T05:38:15;98767.06;;;9.97;52.51
73870;BME280;64924;42.140;24.762;2023-11-18T05:40:47;98770.84;;;9.96;52.20
73870;BME280;64924;42.140;24.762;2023-11-18T05:43:28;98737.06;;;9.79;52.64
73870;BME280;64924;42.140;24.762;2023-11-18T05:45:56;98766.19;;;10.03;52.15
73870;BME280;64924;42.140;24.762;2023-11-18T05:48:46;98785.38;;;10.15;51.75
73870;BME280;64924;42.140;24.762;2023-11-18T05:51:12;98808.56;;;10.11;51.45
73870;BME280;64924;42.140;24.762;2023-11-18T05:53:42;98809.78;;;10.15;51.68
73870;BME280;64924;42.140;24.762;2023-11-18T05:56:14;98810.84;;;10.14;51.35
73870;BME280;64924;42.140;24.762;2023-11-18T05:58:42;98805.84;;;10.04;51.07
73870;BME280;64924;42.140;24.762;2023-11-18T06:01:10;98748.75;;;9.79;51.18
73870;BME280;64924;42.140;24.762;2023-11-18T06:03:38;98783.78;;;9.94;51.02
73870;BME280;64924;42.140;24.762;2023-11-18T06:06:14;98788.72;;;10.03;50.87
73870;BME280;64924;42.140;24.762;2023-11-18T06:08:41;98779.91;;;9.63;50.81
73870;BME280;64924;42.140;24.762;2023-11-18T06:11:07;98821.34;;;9.90;50.80
73870;BME280;64924;42.140;24.762;2023-11-18T06:13:49;98830.28;;;10.04;50.14
73870;BME280;64924;42.140;24.762;2023-11-18T06:16:19;98837.41;;;9.98;50.23
73870;BME280;64924;42.140;24.762;2023-11-18T06:18:51;98843.84;;;10.04;50.12
73870;BME280;64924;42.140;24.762;2023-11-18T06:21:19;98840.97;;;9.92;50.26
73870;BME280;64924;42.140;24.762;2023-11-18T06:23:46;98834.91;;;9.90;50.27
73870;BME280;64924;42.140;24.762;2023-11-18T06:26:12;98822.41;;;9.89;50.09
73870;BME280;64924;42.140;24.762;2023-11-18T06:28:39;98818.63;;;9.90;50.11
73870;BME280;64924;42.140;24.762;2023-11-18T06:31:05;98783.66;;;9.56;49.71
73870;BME280;64924;42.140;24.762;2023-11-18T06:33:37;98810.94;;;9.74;49.90
73870;BME280;64924;42.140;24.762;2023-11-18T06:36:04;98822.41;;;9.76;49.35
73870;BME280;64924;42.140;24.762;2023-11-18T06:38:30;98837.22;;;9.80;49.44
73870;BME280;64924;42.140;24.762;2023-11-18T06:40:56;98827.84;;;9.76;48.90
73870;BME280;64924;42.140;24.762;2023-11-18T06:43:23;98825.94;;;9.83;49.23
73870;BME280;64924;42.140;24.762;2023-11-18T06:45:50;98831.16;;;9.91;49.08
73870;BME280;64924;42.140;24.762;2023-11-18T06:48:16;98800.09;;;9.74;48.37
73870;BME280;64924;42.140;24.762;2023-11-18T06:50:45;98837.84;;;9.95;49.15
73870;BME280;64924;42.140;24.762;2023-11-18T06:53:11;98823.41;;;10.01;48.16
73870;BME280;64924;42.140;24.762;2023-11-18T06:55:37;98829.06;;;9.93;48.35
73870;BME280;64924;42.140;24.762;2023-11-18T06:58:03;98846.41;;;9.92;48.11
73870;BME280;64924;42.140;24.762;2023-11-18T07:00:28;98849.94;;;9.93;47.98
73870;BME280;64924;42.140;24.762;2023-11-18T07:02:57;98833.06;;;9.71;47.88
73870;BME280;64924;42.140;24.762;2023-11-18T07:05:23;98857.25;;;9.92;47.75
73870;BME280;64924;42.140;24.762;2023-11-18T07:07:50;98870.19;;;9.97;46.94
73870;BME280;64924;42.140;24.762;2023-11-18T07:10:16;98840.13;;;9.92;46.24
73870;BME280;64924;42.140;24.762;2023-11-18T07:12:46;98850.78;;;9.93;47.04
73870;BME280;64924;42.140;24.762;2023-11-18T07:15:13;98843.25;;;10.02;46.71
73870;BME280;64924;42.140;24.762;2023-11-18T07:17:39;98850.56;;;10.01;46.39
73870;BME280;64924;42.140;24.762;2023-11-18T07:20:05;98843.63;;;10.05;46.62
73870;BME280;64924;42.140;24.762;2023-11-18T07:22:31;98839.44;;;10.10;46.14
73870;BME280;64924;42.140;24.762;2023-11-18T07:24:56;98812.81;;;9.87;46.08
73870;BME280;64924;42.140;24.762;2023-11-18T07:27:22;98787.97;;;9.77;45.95
73870;BME280;64924;42.140;24.762;2023-11-18T07:29:48;98835.75;;;9.97;46.01
73870;BME280;64924;42.140;24.762;2023-11-18T07:32:13;98782.97;;;9.80;46.27
73870;BME280;64924;42.140;24.762;2023-11-18T07:34:39;98824.84;;;10.04;45.81
73870;BME280;64924;42.140;24.762;2023-11-18T07:37:06;98821.69;;;10.14;45.85
73870;BME280;64924;42.140;24.762;2023-11-18T07:39:33;98827.13;;;10.07;45.58
73870;BME280;64924;42.140;24.762;2023-11-18T07:42:13;98823.97;;;10.17;45.72
73870;BME280;64924;42.140;24.762;2023-11-18T07:44:40;98815.84;;;10.17;45.17
73870;BME280;64924;42.140;24.762;2023-11-18T07:47:06;98804.34;;;10.28;44.90
73870;BME280;64924;42.140;24.762;2023-11-18T07:49:34;98807.63;;;10.43;45.12
73870;BME280;64924;42.140;24.762;2023-11-18T07:52:02;98804.47;;;10.46;44.29
73870;BME280;64924;42.140;24.762;2023-11-18T07:54:27;98819.09;;;10.45;44.62
73870;BME280;64924;42.140;24.762;2023-11-18T07:56:53;98797.81;;;10.42;44.16
73870;BME280;64924;42.140;24.762;2023-11-18T07:59:20;98785.66;;;10.51;43.61
73870;BME280;64924;42.140;24.762;2023-11-18T08:01:45;98809.50;;;10.43;43.56
73870;BME280;64924;42.140;24.762;2023-11-18T08:04:12;98800.41;;;10.24;43.72
73870;BME280;64924;42.140;24.762;2023-11-18T08:06:41;98801.44;;;10.29;43.69
73870;BME280;64924;42.140;24.762;2023-11-18T08:09:08;98793.72;;;10.20;44.11
73870;BME280;64924;42.140;24.762;2023-11-18T08:11:37;98762.19;;;10.19;44.24
73870;BME280;64924;42.140;24.762;2023-11-18T08:14:04;98790.78;;;10.28;43.66
73870;BME280;64924;42.140;24.762;2023-11-18T08:16:30;98822.63;;;10.52;43.54
73870;BME280;64924;42.140;24.762;2023-11-18T08:18:55;98811.09;;;10.57;42.99
73870;BME280;64924;42.140;24.762;2023-11-18T08:21:21;98774.25;;;10.36;42.89
73870;BME280;64924;42.140;24.762;2023-11-18T08:23:47;98814.25;;;10.54;42.97
73870;BME280;64924;42.140;24.762;2023-11-18T08:26:13;98828.00;;;10.65;42.77
73870;BME280;64924;42.140;24.762;2023-11-18T08:28:39;98820.94;;;10.51;42.37
73870;BME280;64924;42.140;24.762;2023-11-18T08:31:06;98838.50;;;10.55;42.48
73870;BME280;64924;42.140;24.762;2023-11-18T08:33:32;98820.75;;;10.53;42.48
73870;BME280;64924;42.140;24.762;2023-11-18T08:35:58;98800.50;;;10.49;42.88
73870;BME280;64924;42.140;24.762;2023-11-18T08:38:24;98821.94;;;10.63;42.67
73870;BME280;64924;42.140;24.762;2023-11-18T08:40:50;98779.38;;;10.51;42.26
73870;BME280;64924;42.140;24.762;2023-11-18T08:43:17;98822.25;;;10.80;42.65
73870;BME280;64924;42.140;24.762;2023-11-18T08:45:42;98841.28;;;10.80;41.81
73870;BME280;64924;42.140;24.762;2023-11-18T08:48:07;98841.94;;;10.76;42.04
73870;BME280;64924;42.140;24.762;2023-11-18T08:50:34;98853.16;;;10.86;42.12
73870;BME280;64924;42.140;24.762;2023-11-18T08:53:00;98847.28;;;10.89;42.03
73870;BME280;64924;42.140;24.762;2023-11-18T08:55:31;98836.59;;;10.94;42.29
73870;BME280;64924;42.140;24.762;2023-11-18T08:58:10;98838.50;;;10.93;41.84
73870;BME280;64924;42.140;24.762;2023-11-18T09:00:49;98818.28;;;10.83;41.52
73870;BME280;64924;42.140;24.762;2023-11-18T09:03:19;98819.03;;;10.96;41.66
73870;BME280;64924;42.140;24.762;2023-11-18T09:06:03;98812.94;;;11.01;41.45
73870;BME280;64924;42.140;24.762;2023-11-18T09:08:37;98805.22;;;10.98;41.30
73870;BME280;64924;42.140;24.762;2023-11-18T09:11:09;98810.94;;;10.83;41.18
73870;BME280;64924;42.140;24.762;2023-11-18T09:13:46;98806.44;;;10.70;40.73
73870;BME280;64924;42.140;24.762;2023-11-18T09:16:19;98811.69;;;10.65;41.38
73870;BME280;64924;42.140;24.762;2023-11-18T09:18:48;98795.19;;;10.67;41.48
73870;BME280;64924;42.140;24.762;2023-11-18T09:21:14;98798.31;;;10.70;41.35
73870;BME280;64924;42.140;24.762;2023-11-18T09:23:41;98796.81;;;10.75;41.39
73870;BME280;64924;42.140;24.762;2023-11-18T09:26:07;98804.28;;;10.79;41.14
73870;BME280;64924;42.140;24.762;2023-11-18T09:28:36;98779.69;;;10.74;41.04
73870;BME280;64924;42.140;24.762;2023-11-18T09:31:05;98791.16;;;10.76;40.90
73870;BME280;64924;42.140;24.762;2023-11-18T09:33:32;98797.75;;;10.87;41.07
73870;BME280;64924;42.140;24.762;2023-11-18T09:36:06;98773.63;;;11.03;41.26
73870;BME280;64924;42.140;24.762;2023-11-18T09:38:40;98783.53;;;11.16;40.45
73870;BME280;64924;42.140;24.762;2023-11-18T09:41:10;98779.41;;;11.14;41.04
73870;BME280;64924;42.140;24.762;2023-11-18T09:43:40;98765.63;;;11.09;40.46
73870;BME280;64924;42.140;24.762;2023-11-18T09:46:13;98702.25;;;10.58;40.43
73870;BME280;64924;42.140;24.762;2023-11-18T09:48:47;98782.88;;;11.21;40.36
73870;BME280;64924;42.140;24.762;2023-11-18T09:51:22;98773.78;;;11.33;40.31
73870;BME280;64924;42.140;24.762;2023-11-18T09:53:52;98759.41;;;11.26;40.12
73870;BME280;64924;42.140;24.762;2023-11-18T10:01:38;98742.50;;;11.24;40.35
73870;BME280;64924;42.140;24.762;2023-11-18T10:04:06;98717.91;;;10.88;40.47
73870;BME280;64924;42.140;24.762;2023-11-18T10:06:35;98768.06;;;11.17;40.40
73870;BME280;64924;42.140;24.762;2023-11-18T10:09:02;98736.72;;;11.14;40.17
73870;BME280;64924;42.140;24.762;2023-11-18T10:11:43;98751.69;;;10.98;39.91
73870;BME280;64924;42.140;24.762;2023-11-18T10:14:12;98753.81;;;10.96;40.57
73870;BME280;64924;42.140;24.762;2023-11-18T10:16:41;98744.66;;;10.91;40.41
73870;BME280;64924;42.140;24.762;2023-11-18T10:19:07;98763.81;;;11.02;40.46
73870;BME280;64924;42.140;24.762;2023-11-18T10:21:37;98770.72;;;10.98;40.10
73870;BME280;64924;42.140;24.762;2023-11-18T10:24:09;98772.53;;;11.11;39.99
73870;BME280;64924;42.140;24.762;2023-11-18T10:26:46;98754.59;;;11.03;40.24
73870;BME280;64924;42.140;24.762;2023-11-18T10:29:11;98749.72;;;11.12;40.49
73870;BME280;64924;42.140;24.762;2023-11-18T10:31:41;98756.34;;;11.16;40.41
73870;BME280;64924;42.140;24.762;2023-11-18T10:34:14;98739.00;;;11.42;40.08
73870;BME280;64924;42.140;24.762;2023-11-18T10:36:59;98749.66;;;11.62;39.67
73870;BME280;64924;42.140;24.762;2023-11-18T10:39:31;98689.19;;;11.42;39.95
73870;BME280;64924;42.140;24.762;2023-11-18T10:42:01;98744.06;;;11.82;39.21
73870;BME280;64924;42.140;24.762;2023-11-18T10:44:27;98712.25;;;11.76;39.37
73870;BME280;64924;42.140;24.762;2023-11-18T10:46:53;98732.16;;;11.76;39.05
73870;BME280;64924;42.140;24.762;2023-11-18T10:49:21;98705.56;;;11.78;38.85
73870;BME280;64924;42.140;24.762;2023-11-18T10:51:47;98719.72;;;11.87;38.57
73870;BME280;64924;42.140;24.762;2023-11-18T10:54:13;98725.38;;;11.85;38.93
73870;BME280;64924;42.140;24.762;2023-11-18T10:56:49;98720.66;;;12.11;38.43
73870;BME280;64924;42.140;24.762;2023-11-18T10:59:15;98727.09;;;12.16;38.37
73870;BME280;64924;42.140;24.762;2023-11-18T11:01:42;98732.75;;;11.96;38.33
73870;BME280;64924;42.140;24.762;2023-11-18T11:04:09;98725.28;;;11.92;38.22
73870;BME280;64924;42.140;24.762;2023-11-18T11:06:40;98726.88;;;12.18;38.42
73870;BME280;64924;42.140;24.762;2023-11-18T11:09:07;98718.88;;;12.34;38.04
73870;BME280;64924;42.140;24.762;2023-11-18T11:11:49;98734.59;;;12.21;37.66
73870;BME280;64924;42.140;24.762;2023-11-18T11:14:22;98736.16;;;12.10;38.45
73870;BME280;64924;42.140;24.762;2023-11-18T11:17:05;98749.63;;;12.05;38.10
73870;BME280;64924;42.140;24.762;2023-11-18T11:19:46;98734.50;;;11.91;38.28
73870;BME280;64924;42.140;24.762;2023-11-18T11:22:17;98750.16;;;11.95;38.35
73870;BME280;64924;42.140;24.762;2023-11-18T11:29:59;98746.78;;;11.82;38.39
73870;BME280;64924;42.140;24.762;2023-11-18T11:32:39;98749.28;;;11.83;38.91
73870;BME280;64924;42.140;24.762;2023-11-18T11:35:19;98730.94;;;11.72;38.81
73870;BME280;64924;42.140;24.762;2023-11-18T11:37:48;98736.22;;;11.67;38.87
73870;BME280;64924;42.140;24.762;2023-11-18T11:40:15;98744.66;;;11.59;38.98
73870;BME280;64924;42.140;24.762;2023-11-18T11:42:50;98758.44;;;11.64;38.72
73870;BME280;64924;42.140;24.762;2023-11-18T11:45:22;98739.66;;;11.56;38.29
73870;BME280;64924;42.140;24.762;2023-11-18T11:47:54;98734.38;;;11.61;38.27
73870;BME280;64924;42.140;24.762;2023-11-18T11:50:45;98737.81;;;11.75;38.32
73870;BME280;64924;42.140;24.762;2023-11-18T11:53:16;98730.31;;;11.70;38.20
73870;BME280;64924;42.140;24.762;2023-11-18T11:55:48;98758.16;;;11.90;38.48
73870;BME280;64924;42.140;24.762;2023-11-18T11:58:30;98700.34;;;11.77;37.84
73870;BME280;64924;42.140;24.762;2023-11-18T12:01:01;98747.28;;;12.09;37.95
73870;BME280;64924;42.140;24.762;2023-11-18T12:03:33;98761.66;;;11.97;37.85
73870;BME280;64924;42.140;24.762;2023-11-18T12:06:04;98739.59;;;11.87;37.58
73870;BME280;64924;42.140;24.762;2023-11-18T12:08:35;98744.72;;;11.77;37.71
73870;BME280;64924;42.140;24.762;2023-11-18T12:11:02;98747.16;;;11.60;38.52
73870;BME280;64924;42.140;24.762;2023-11-18T12:13:28;98752.44;;;11.55;38.28
73870;BME280;64924;42.140;24.762;2023-11-18T12:15:57;98757.66;;;11.57;38.08
73870;BME280;64924;42.140;24.762;2023-11-18T12:18:23;98732.94;;;11.40;38.56
73870;BME280;64924;42.140;24.762;2023-11-18T12:20:50;98759.38;;;11.51;38.50
73870;BME280;64924;42.140;24.762;2023-11-18T12:23:23;98753.59;;;11.48;38.27
73870;BME280;64924;42.140;24.762;2023-11-18T12:25:53;98764.69;;;11.64;38.26
73870;BME280;64924;42.140;24.762;2023-11-18T12:28:27;98761.97;;;11.64;37.99
73870;BME280;64924;42.140;24.762;2023-11-18T12:30:56;98781.09;;;11.58;38.36
73870;BME280;64924;42.140;24.762;2023-11-18T12:33:27;98756.66;;;11.51;38.55
73870;BME280;64924;42.140;24.762;2023-11-18T12:42:06;98766.47;;;11.09;39.08
73870;BME280;64924;42.140;24.762;2023-11-18T12:47:33;98736.22;;;10.74;39.51
73870;BME280;64924;42.140;24.762;2023-11-18T12:50:08;98782.38;;;11.05;39.62
73870;BME280;64924;42.140;24.762;2023-11-18T12:52:42;98787.38;;;11.09;39.47
73870;BME280;64924;42.140;24.762;2023-11-18T12:55:11;98737.66;;;10.77;39.24
73870;BME280;64924;42.140;24.762;2023-11-18T12:57:46;98778.09;;;10.91;39.44
73870;BME280;64924;42.140;24.762;2023-11-18T13:00:13;98781.06;;;10.83;39.64
73870;BME280;64924;42.140;24.762;2023-11-18T13:02:42;98777.59;;;10.76;40.15
73870;BME280;64924;42.140;24.762;2023-11-18T13:05:08;98767.81;;;10.68;40.25
73870;BME280;64924;42.140;24.762;2023-11-18T13:07:38;98791.38;;;10.75;39.76
73870;BME280;64924;42.140;24.762;2023-11-18T13:10:05;98776.38;;;10.65;39.85
73870;BME280;64924;42.140;24.762;2023-11-18T13:12:31;98795.16;;;10.74;39.79
73870;BME280;64924;42.140;24.762;2023-11-18T13:14:56;98792.75;;;10.52;40.07